createdAt,value
2019-04-28T00:02:32.532Z,13.10
2019-04-28T00:05:11.346Z,13.06
2019-04-28T00:07:47.488Z,13.00
2019-04-28T00:10:22.561Z,12.94
2019-04-28T00:12:57.756Z,12.91
2019-04-28T00:15:33.172Z,12.90
2019-04-28T00:18:09.286Z,12.85
2019-04-28T00:20:46.022Z,12.83
2019-04-28T00:23:42.120Z,12.77
2019-04-28T00:26:37.406Z,12.71
2019-04-28T00:29:12.555Z,12.67
2019-04-28T00:31:47.731Z,12.64
2019-04-28T00:34:24.178Z,12.60
2019-04-28T00:37:03.310Z,12.56
2019-04-28T00:39:40.984Z,12.53
2019-04-28T00:42:17.581Z,12.47
2019-04-28T00:44:54.145Z,12.43
2019-04-28T00:47:30.993Z,12.35
2019-04-28T00:50:07.705Z,12.31
2019-04-28T00:52:43.390Z,12.22
2019-04-28T00:55:20.967Z,12.18
2019-04-28T00:57:58.658Z,12.09
2019-04-28T01:00:36.397Z,12.01
2019-04-28T01:03:11.741Z,11.96
2019-04-28T01:05:50.767Z,11.90
2019-04-28T01:08:26.356Z,11.89
2019-04-28T01:11:01.845Z,11.85
2019-04-28T01:13:37.252Z,11.83
2019-04-28T01:16:19.413Z,11.81
2019-04-28T01:19:13.077Z,11.82
2019-04-28T01:22:05.988Z,11.88
2019-04-28T01:24:42.657Z,11.91
2019-04-28T01:27:32.476Z,11.97
2019-04-28T01:30:11.229Z,11.98
2019-04-28T01:32:49.826Z,12.02
2019-04-28T01:35:25.291Z,12.02
2019-04-28T01:38:00.375Z,12.06
2019-04-28T01:40:35.473Z,12.06
2019-04-28T01:43:10.600Z,11.99
2019-04-28T01:45:46.173Z,12.03
2019-04-28T01:48:21.245Z,11.99
2019-04-28T01:50:56.729Z,11.93
2019-04-28T01:53:31.872Z,11.91
2019-04-28T01:56:07.240Z,11.88
2019-04-28T01:58:43.428Z,11.90
2019-04-28T02:01:20.417Z,11.91
2019-04-28T02:03:55.616Z,11.92
2019-04-28T02:06:30.706Z,11.89
2019-04-28T02:09:09.611Z,11.86
2019-04-28T02:11:45.476Z,11.83
2019-04-28T02:14:20.562Z,11.86
2019-04-28T02:16:56.123Z,11.78
2019-04-28T02:19:32.996Z,11.75
2019-04-28T02:22:10.508Z,11.74
2019-04-28T02:24:46.955Z,11.73
2019-04-28T02:27:22.370Z,11.68
2019-04-28T02:29:57.470Z,11.60
2019-04-28T02:32:33.817Z,11.50
2019-04-28T02:35:10.678Z,11.45
2019-04-28T02:37:45.965Z,11.43
2019-04-28T02:40:21.697Z,11.40
2019-04-28T02:43:01.163Z,11.35
2019-04-28T02:45:36.588Z,11.37
2019-04-28T02:48:13.296Z,11.33
2019-04-28T02:50:56.060Z,11.27
2019-04-28T02:53:33.635Z,11.19
2019-04-28T02:56:11.222Z,11.21
2019-04-28T02:58:50.829Z,11.21
2019-04-28T03:01:26.615Z,11.21
2019-04-28T03:04:02.494Z,11.14
2019-04-28T03:06:40.510Z,11.11
2019-04-28T03:09:14.692Z,11.17
2019-04-28T03:11:51.175Z,11.15
2019-04-28T03:14:27.418Z,11.15
2019-04-28T03:17:02.548Z,11.13
2019-04-28T03:19:41.587Z,11.10
2019-04-28T03:22:16.647Z,11.08
2019-04-28T03:24:53.627Z,11.05
2019-04-28T03:27:31.050Z,11.03
2019-04-28T03:30:26.098Z,10.96
2019-04-28T03:33:10.693Z,10.94
2019-04-28T03:35:43.922Z,10.94
2019-04-28T03:38:17.060Z,10.91
2019-04-28T03:40:54.096Z,10.83
2019-04-28T03:43:30.633Z,10.84
2019-04-28T03:46:20.785Z,10.86
2019-04-28T03:48:57.789Z,10.85
2019-04-28T03:51:32.992Z,10.80
2019-04-28T03:54:10.258Z,10.83
2019-04-28T03:56:45.904Z,10.82
2019-04-28T03:59:21.308Z,10.73
2019-04-28T04:02:02.314Z,10.72
2019-04-28T04:04:34.181Z,10.66
2019-04-28T04:07:11.130Z,10.66
2019-04-28T04:09:47.911Z,10.66
2019-04-28T04:12:27.348Z,10.63
2019-04-28T04:15:07.474Z,10.67
2019-04-28T04:18:03.796Z,10.67
2019-04-28T04:20:40.879Z,10.62
2019-04-28T04:23:16.454Z,10.65
2019-04-28T04:25:52.013Z,10.62
2019-04-28T04:28:30.282Z,10.60
2019-04-28T04:31:05.194Z,10.64
2019-04-28T04:33:41.226Z,10.59
2019-04-28T04:36:16.493Z,10.54
2019-04-28T04:38:51.895Z,10.45
2019-04-28T04:41:26.960Z,10.37
2019-04-28T04:44:02.585Z,10.32
2019-04-28T04:46:41.221Z,10.25
2019-04-28T04:49:15.715Z,10.17
2019-04-28T04:51:51.101Z,10.16
2019-04-28T04:54:30.255Z,10.12
2019-04-28T04:57:04.382Z,10.08
2019-04-28T04:59:40.249Z,10.06
2019-04-28T05:02:30.634Z,9.98
2019-04-28T05:05:05.397Z,9.90
2019-04-28T05:07:40.431Z,9.86
2019-04-28T05:10:15.505Z,9.80
2019-04-28T05:12:51.835Z,9.74
2019-04-28T05:15:27.248Z,9.76
2019-04-28T05:18:02.361Z,9.74
2019-04-28T05:20:37.418Z,9.79
2019-04-28T05:23:14.368Z,9.83
2019-04-28T05:25:49.814Z,9.84
2019-04-28T05:28:25.223Z,9.86
2019-04-28T05:31:00.546Z,9.87
2019-04-28T05:33:35.619Z,9.86
2019-04-28T05:36:12.150Z,9.90
2019-04-28T05:38:47.489Z,9.93
2019-04-28T05:41:23.416Z,9.94
2019-04-28T05:43:59.598Z,9.91
2019-04-28T05:46:34.839Z,9.91
2019-04-28T05:49:11.503Z,9.92
2019-04-28T05:51:50.473Z,9.94
2019-04-28T05:54:33.092Z,9.95
2019-04-28T05:57:10.698Z,9.94
2019-04-28T06:00:00.153Z,9.91
2019-04-28T06:02:55.913Z,9.91
2019-04-28T06:05:22.705Z,9.89
2019-04-28T06:08:10.009Z,9.92
2019-04-28T06:10:45.178Z,9.92
2019-04-28T06:13:20.314Z,9.93
2019-04-28T06:15:55.610Z,9.96
2019-04-28T06:18:30.860Z,10.02
2019-04-28T06:21:08.010Z,10.05
2019-04-28T06:23:43.332Z,10.12
2019-04-28T06:26:20.345Z,10.17
2019-04-28T06:28:55.631Z,10.23
2019-04-28T06:31:30.947Z,10.28
2019-04-28T06:34:05.985Z,10.30
2019-04-28T06:36:42.939Z,10.38
2019-04-28T06:39:18.258Z,10.44
2019-04-28T06:41:54.468Z,10.55
2019-04-28T06:44:29.795Z,10.59
2019-04-28T06:47:05.096Z,10.61
2019-04-28T06:49:40.287Z,10.69
2019-04-28T06:52:15.877Z,10.64
2019-04-28T06:54:51.273Z,10.65
2019-04-28T06:57:26.420Z,10.64
2019-04-28T07:00:01.766Z,10.65
2019-04-28T07:02:36.864Z,10.61
2019-04-28T07:05:12.395Z,10.59
2019-04-28T07:07:47.492Z,10.60
2019-04-28T07:10:22.810Z,10.61
2019-04-28T07:12:57.903Z,10.61
2019-04-28T07:15:33.301Z,10.66
2019-04-28T07:18:08.381Z,10.73
2019-04-28T07:20:55.070Z,10.74
2019-04-28T07:23:31.663Z,10.79
2019-04-28T07:26:11.004Z,10.89
2019-04-28T07:28:46.975Z,10.89
2019-04-28T07:31:23.998Z,10.96
2019-04-28T07:33:59.050Z,11.05
2019-04-28T07:36:34.113Z,11.10
2019-04-28T07:39:09.275Z,11.13
2019-04-28T07:41:44.449Z,11.16
2019-04-28T07:44:19.918Z,11.25
2019-04-28T07:46:55.890Z,11.26
2019-04-28T07:49:30.992Z,11.39
2019-04-28T07:52:08.909Z,11.61
2019-04-28T07:54:44.217Z,11.72
2019-04-28T07:57:20.142Z,11.79
2019-04-28T07:59:55.458Z,11.69
2019-04-28T08:02:31.076Z,11.70
2019-04-28T08:05:07.089Z,11.72
2019-04-28T08:07:42.199Z,11.56
2019-04-28T08:10:18.247Z,11.55
2019-04-28T08:12:54.389Z,11.60
2019-04-28T08:15:31.080Z,11.58
2019-04-28T08:18:06.421Z,11.55
2019-04-28T08:20:41.571Z,11.58
2019-04-28T08:23:17.616Z,11.57
2019-04-28T08:25:54.612Z,11.54
2019-04-28T08:28:31.563Z,11.58
2019-04-28T08:31:07.424Z,11.71
2019-04-28T08:34:02.252Z,11.99
2019-04-28T08:36:31.515Z,12.10
2019-04-28T08:39:07.684Z,12.10
2019-04-28T08:41:42.818Z,11.96
2019-04-28T08:44:17.982Z,11.85
2019-04-28T08:46:55.553Z,11.81
2019-04-28T08:49:33.081Z,11.84
2019-04-28T08:52:08.626Z,11.76
2019-04-28T08:54:44.196Z,11.74
2019-04-28T08:57:19.902Z,11.74
2019-04-28T08:59:56.167Z,11.72
2019-04-28T09:02:31.310Z,11.62
2019-04-28T09:05:06.890Z,11.55
2019-04-28T09:07:41.997Z,11.47
2019-04-28T09:10:17.467Z,11.46
2019-04-28T09:12:52.575Z,11.56
2019-04-28T09:15:27.662Z,11.80
2019-04-28T09:18:03.035Z,12.19
2019-04-28T09:20:39.272Z,12.60
2019-04-28T09:23:14.687Z,12.94
2019-04-28T09:25:49.777Z,12.97
2019-04-28T09:28:25.192Z,13.26
2019-04-28T09:31:00.587Z,13.11
2019-04-28T09:33:35.621Z,13.14
2019-04-28T09:36:10.792Z,13.14
2019-04-28T09:38:46.847Z,13.18
2019-04-28T09:41:23.536Z,13.22
2019-04-28T09:44:03.077Z,13.39
2019-04-28T09:46:40.106Z,13.78
2019-04-28T09:49:18.414Z,14.35
2019-04-28T09:51:54.378Z,14.66
2019-04-28T09:54:30.282Z,14.40
2019-04-28T09:57:10.569Z,13.98
2019-04-28T09:59:46.728Z,13.74
2019-04-28T10:02:24.574Z,13.43
2019-04-28T10:04:59.779Z,13.16
2019-04-28T10:07:34.825Z,13.11
2019-04-28T10:10:11.007Z,13.14
2019-04-28T10:12:48.112Z,13.03
2019-04-28T10:15:23.252Z,12.98
2019-04-28T10:17:58.469Z,12.99
2019-04-28T10:20:33.951Z,13.06
2019-04-28T10:23:09.479Z,13.05
2019-04-28T10:25:46.575Z,13.05
2019-04-28T10:28:21.797Z,12.98
2019-04-28T10:30:58.420Z,12.96
2019-04-28T10:33:33.733Z,13.13
2019-04-28T10:36:13.005Z,13.21
2019-04-28T10:38:50.010Z,13.18
2019-04-28T10:41:33.708Z,13.29
2019-04-28T10:44:08.837Z,13.37
2019-04-28T10:46:44.872Z,13.45
2019-04-28T10:49:20.840Z,14.01
2019-04-28T10:51:59.424Z,14.01
2019-04-28T10:54:34.931Z,14.23
2019-04-28T10:57:11.170Z,14.27
2019-04-28T10:59:46.343Z,14.31
2019-04-28T11:02:21.860Z,14.35
2019-04-28T11:05:08.065Z,14.55
2019-04-28T11:07:38.705Z,14.55
2019-04-28T11:10:17.218Z,14.55
2019-04-28T11:12:53.236Z,14.87
2019-04-28T11:15:36.897Z,16.40
2019-04-28T11:18:18.777Z,18.13
2019-04-28T11:20:53.979Z,18.86
2019-04-28T11:23:29.358Z,18.50
2019-04-28T11:26:04.578Z,18.50
2019-04-28T11:28:50.079Z,18.21
2019-04-28T11:31:26.625Z,17.77
2019-04-28T11:34:07.554Z,17.06
2019-04-28T11:36:44.625Z,16.12
2019-04-28T11:39:21.429Z,15.55
2019-04-28T11:41:57.065Z,15.19
2019-04-28T11:44:32.163Z,14.95
2019-04-28T11:47:11.739Z,14.91
2019-04-28T11:49:48.955Z,14.86
2019-04-28T11:52:27.206Z,14.92
2019-04-28T11:55:03.610Z,15.16
2019-04-28T11:57:41.236Z,14.94
2019-04-28T12:00:32.076Z,14.81
2019-04-28T12:03:07.195Z,14.88
2019-04-28T12:05:44.865Z,14.85
2019-04-28T12:08:20.942Z,14.60
2019-04-28T12:11:18.253Z,14.39
2019-04-28T12:14:15.934Z,14.07
2019-04-28T12:17:00.712Z,13.98
2019-04-28T12:19:38.419Z,13.87
2019-04-28T12:22:20.526Z,13.78
2019-04-28T12:24:56.340Z,13.76
2019-04-28T12:27:32.836Z,13.91
2019-04-28T12:30:08.670Z,13.98
2019-04-28T12:32:43.996Z,14.10
2019-04-28T12:35:19.541Z,14.28
2019-04-28T12:37:54.635Z,14.44
2019-04-28T12:40:32.475Z,14.64
2019-04-28T12:43:08.208Z,15.11
2019-04-28T12:45:43.579Z,15.25
2019-04-28T12:48:19.827Z,15.39
2019-04-28T12:50:58.862Z,15.41
2019-04-28T12:53:35.128Z,15.42
2019-04-28T12:56:10.584Z,15.31
2019-04-28T12:58:45.728Z,14.98
2019-04-28T13:01:35.656Z,14.86
2019-04-28T13:04:16.514Z,14.85
2019-04-28T13:07:03.661Z,15.00
2019-04-28T13:09:40.112Z,15.18
2019-04-28T13:12:16.470Z,15.36
2019-04-28T13:14:52.595Z,15.40
2019-04-28T13:17:29.117Z,15.25
2019-04-28T13:20:07.062Z,15.03
2019-04-28T13:22:42.728Z,14.78
2019-04-28T13:25:18.163Z,14.72
2019-04-28T13:27:53.758Z,14.51
2019-04-28T13:30:32.661Z,14.52
2019-04-28T13:33:11.542Z,14.50
2019-04-28T13:35:47.020Z,14.43
2019-04-28T13:38:27.425Z,14.47
2019-04-28T13:41:01.730Z,14.58
2019-04-28T13:43:38.882Z,14.89
2019-04-28T13:46:15.001Z,14.90
2019-04-28T13:48:51.608Z,15.01
2019-04-28T13:51:27.740Z,15.11
2019-04-28T13:54:04.583Z,15.00
2019-04-28T13:56:39.732Z,15.02
2019-04-28T13:59:17.924Z,15.10
2019-04-28T14:01:58.024Z,15.79
2019-04-28T14:04:44.194Z,17.22
2019-04-28T14:07:22.917Z,18.53
2019-04-28T14:09:58.208Z,18.95
2019-04-28T14:12:35.266Z,18.88
2019-04-28T14:15:14.336Z,18.16
2019-04-28T14:17:49.556Z,17.35
2019-04-28T14:20:25.639Z,16.78
2019-04-28T14:23:00.778Z,16.32
2019-04-28T14:25:36.992Z,15.94
2019-04-28T14:28:12.150Z,15.49
2019-04-28T14:30:47.406Z,15.33
2019-04-28T14:33:22.689Z,15.18
2019-04-28T14:35:59.991Z,15.08
2019-04-28T14:38:35.339Z,15.04
2019-04-28T14:41:10.958Z,15.18
2019-04-28T14:43:51.381Z,15.38
2019-04-28T14:46:30.233Z,16.79
2019-04-28T14:49:09.561Z,18.65
2019-04-28T14:51:46.344Z,19.37
2019-04-28T14:54:21.852Z,18.80
2019-04-28T14:56:59.428Z,17.91
2019-04-28T14:59:36.535Z,17.47
2019-04-28T15:02:13.661Z,16.93
2019-04-28T15:04:53.578Z,16.57
2019-04-28T15:07:48.422Z,16.47
2019-04-28T15:10:28.373Z,16.35
2019-04-28T15:13:06.800Z,16.49
2019-04-28T15:15:43.143Z,16.57
2019-04-28T15:18:19.327Z,16.43
2019-04-28T15:20:55.759Z,16.66
2019-04-28T15:23:32.545Z,16.55
2019-04-28T15:26:08.777Z,16.59
2019-04-28T15:28:44.974Z,16.71
2019-04-28T15:31:20.147Z,17.22
2019-04-28T15:33:59.113Z,18.00
2019-04-28T15:36:41.484Z,18.18
2019-04-28T15:39:18.730Z,18.51
2019-04-28T15:41:54.814Z,19.38
2019-04-28T15:44:29.944Z,19.77
2019-04-28T15:47:08.708Z,19.83
2019-04-28T15:49:47.635Z,20.08
2019-04-28T15:52:24.898Z,19.13
2019-04-28T15:55:00.610Z,18.50
2019-04-28T15:57:36.413Z,18.12
2019-04-28T16:00:13.656Z,17.59
2019-04-28T16:02:51.814Z,17.34
2019-04-28T16:05:29.041Z,17.13
2019-04-28T16:08:04.253Z,17.52
2019-04-28T16:10:39.833Z,18.34
2019-04-28T16:13:15.987Z,18.83
2019-04-28T16:15:55.139Z,18.79
2019-04-28T16:18:33.682Z,18.63
2019-04-28T16:21:13.021Z,18.34
2019-04-28T16:23:54.190Z,18.10
2019-04-28T16:26:29.439Z,17.91
2019-04-28T16:29:06.840Z,17.75
2019-04-28T16:31:43.019Z,17.67
2019-04-28T16:34:18.355Z,17.72
2019-04-28T16:36:54.041Z,17.56
2019-04-28T16:39:29.494Z,17.98
2019-04-28T16:42:04.979Z,18.19
2019-04-28T16:44:45.628Z,18.07
2019-04-28T16:47:21.436Z,17.65
2019-04-28T16:49:56.577Z,17.16
2019-04-28T16:52:32.051Z,17.07
2019-04-28T16:55:19.419Z,17.39
2019-04-28T16:58:15.907Z,17.31
2019-04-28T17:01:08.215Z,17.38
2019-04-28T17:03:44.552Z,17.37
2019-04-28T17:06:21.646Z,17.07
2019-04-28T17:08:58.147Z,17.08
2019-04-28T17:11:38.093Z,16.64
2019-04-28T17:14:13.686Z,16.29
2019-04-28T17:16:48.912Z,16.05
2019-04-28T17:19:43.253Z,15.81
2019-04-28T17:22:45.325Z,15.59
2019-04-28T17:24:56.660Z,15.57
2019-04-28T17:27:34.719Z,15.68
2019-04-28T17:30:16.175Z,15.74
2019-04-28T17:32:53.332Z,15.79
2019-04-28T17:35:28.964Z,15.67
2019-04-28T17:38:06.850Z,15.52
2019-04-28T17:40:41.807Z,15.25
2019-04-28T17:43:17.096Z,14.95
2019-04-28T17:45:52.587Z,14.76
2019-04-28T17:48:33.038Z,14.52
2019-04-28T17:51:09.192Z,14.35
2019-04-28T17:53:44.352Z,14.15
2019-04-28T17:56:19.566Z,14.00
2019-04-28T17:58:56.495Z,13.81
2019-04-28T18:02:36.297Z,13.76
2019-04-28T18:05:23.514Z,13.66
2019-04-28T18:08:00.470Z,13.57
2019-04-28T18:10:37.476Z,13.48
2019-04-28T18:13:12.706Z,13.45
2019-04-28T18:15:49.669Z,13.36
2019-04-28T18:18:29.255Z,13.25
2019-04-28T18:21:04.596Z,13.17
2019-04-28T18:23:40.120Z,13.10
2019-04-28T18:26:15.820Z,13.05
2019-04-28T18:28:50.947Z,13.00
2019-04-28T18:31:28.029Z,12.94
2019-04-28T18:34:08.493Z,12.88
2019-04-28T18:37:01.613Z,12.65
2019-04-28T18:39:55.682Z,12.65
2019-04-28T18:42:39.985Z,12.67
2019-04-28T18:45:17.986Z,12.61
2019-04-28T18:47:53.523Z,12.58
2019-04-28T18:50:28.766Z,12.56
2019-04-28T18:53:05.761Z,12.52
2019-04-28T18:55:41.989Z,12.49
2019-04-28T18:58:17.711Z,12.46
2019-04-28T19:00:57.984Z,12.47
2019-04-28T19:03:33.225Z,12.46
2019-04-28T19:06:09.132Z,12.45
2019-04-28T19:08:53.112Z,12.47
2019-04-28T19:11:30.993Z,12.41
2019-04-28T19:14:08.337Z,12.37
2019-04-28T19:16:50.331Z,12.35
2019-04-28T19:19:31.576Z,12.29
2019-04-28T19:22:08.628Z,12.25
2019-04-28T19:24:47.605Z,12.23
2019-04-28T19:27:23.542Z,12.20
2019-04-28T19:29:59.161Z,12.18
2019-04-28T19:32:34.888Z,12.14
2019-04-28T19:35:12.283Z,12.10
2019-04-28T19:37:48.566Z,12.09
2019-04-28T19:40:28.337Z,12.04
2019-04-28T19:43:03.922Z,12.03
2019-04-28T19:45:41.643Z,12.03
2019-04-28T19:48:18.587Z,12.01
2019-04-28T19:50:54.925Z,12.01
2019-04-28T19:53:31.973Z,12.01
2019-04-28T19:56:11.655Z,11.98
2019-04-28T19:59:02.582Z,12.00
2019-04-28T20:01:39.506Z,11.98
2019-04-28T20:04:15.905Z,11.94
2019-04-28T20:07:07.539Z,11.92
2019-04-28T20:09:43.338Z,11.89
2019-04-28T20:12:18.722Z,11.87
2019-04-28T20:14:54.100Z,11.85
2019-04-28T20:17:37.244Z,11.84
2019-04-28T20:20:14.147Z,11.86
2019-04-28T20:22:54.878Z,11.82
2019-04-28T20:25:31.485Z,11.81
2019-04-28T20:28:06.810Z,11.78
2019-04-28T20:30:42.009Z,11.77
2019-04-28T20:33:26.051Z,11.80
2019-04-28T20:36:07.096Z,11.79
2019-04-28T20:38:43.970Z,11.77
2019-04-28T20:41:22.050Z,11.72
2019-04-28T20:43:58.732Z,11.75
2019-04-28T20:46:34.305Z,11.76
2019-04-28T20:49:10.376Z,11.72
2019-04-28T20:51:45.528Z,11.70
2019-04-28T20:54:21.133Z,11.75
2019-04-28T20:56:56.685Z,11.75
2019-04-28T20:59:31.810Z,11.73
2019-04-28T21:02:06.901Z,11.81
2019-04-28T21:04:42.288Z,11.91
2019-04-28T21:07:17.375Z,11.99
2019-04-28T21:09:52.599Z,12.10
2019-04-28T21:12:27.678Z,12.07
2019-04-28T21:15:02.880Z,11.98
2019-04-28T21:17:40.173Z,11.91
2019-04-28T21:20:16.730Z,11.86
2019-04-28T21:22:52.274Z,11.88
2019-04-28T21:25:27.808Z,11.87
2019-04-28T21:28:10.875Z,11.84
2019-04-28T21:30:47.046Z,11.82
2019-04-28T21:33:23.498Z,11.81
2019-04-28T21:36:04.070Z,11.82
2019-04-28T21:38:39.680Z,11.81
2019-04-28T21:41:15.975Z,11.86
2019-04-28T21:43:59.053Z,11.82
2019-04-28T21:46:36.971Z,11.77
2019-04-28T21:49:14.039Z,11.80
2019-04-28T21:51:49.126Z,11.82
2019-04-28T21:54:24.300Z,11.82
2019-04-28T21:57:00.469Z,11.83
2019-04-28T21:59:35.563Z,11.77
2019-04-28T22:02:11.644Z,11.79
2019-04-28T22:04:47.318Z,11.79
2019-04-28T22:07:23.751Z,11.77
2019-04-28T22:10:00.104Z,11.69
2019-04-28T22:12:35.745Z,11.64
2019-04-28T22:15:11.848Z,11.67
2019-04-28T22:17:46.942Z,11.64
2019-04-28T22:20:22.900Z,11.63
2019-04-28T22:22:59.677Z,11.66
2019-04-28T22:25:36.025Z,11.61
2019-04-28T22:28:11.448Z,11.58
2019-04-28T22:30:47.485Z,11.50
2019-04-28T22:33:22.594Z,11.45
2019-04-28T22:35:57.684Z,11.42
2019-04-28T22:38:34.667Z,11.41
2019-04-28T22:41:09.925Z,11.39
2019-04-28T22:43:46.392Z,11.37
2019-04-28T22:46:21.854Z,11.44
2019-04-28T22:48:58.947Z,11.39
2019-04-28T22:51:34.434Z,11.35
2019-04-28T22:54:14.000Z,11.32
2019-04-28T22:56:51.181Z,11.28
2019-04-28T22:59:29.220Z,11.32
2019-04-28T23:02:06.443Z,11.38
2019-04-28T23:04:47.699Z,11.30
2019-04-28T23:07:24.107Z,11.33
2019-04-28T23:10:00.298Z,11.34
2019-04-28T23:12:36.989Z,11.41
2019-04-28T23:15:14.071Z,11.34
2019-04-28T23:17:49.217Z,11.31
2019-04-28T23:20:26.288Z,11.25
2019-04-28T23:23:03.008Z,11.26
2019-04-28T23:25:38.154Z,11.19
2019-04-28T23:28:13.606Z,11.19
2019-04-28T23:30:48.753Z,11.20
2019-04-28T23:33:25.296Z,11.14
2019-04-28T23:36:01.268Z,11.09
2019-04-28T23:38:36.751Z,11.04
2019-04-28T23:41:20.116Z,11.05
2019-04-28T23:43:55.590Z,11.00
2019-04-28T23:46:49.699Z,10.97
2019-04-28T23:49:26.425Z,10.92
2019-04-28T23:52:05.966Z,10.87
2019-04-28T23:54:45.813Z,10.88
2019-04-28T23:57:20.877Z,10.89
2019-04-28T23:59:57.874Z,10.96
